createdAt,value
2018-04-16T00:02:24.442Z,17.87
2018-04-16T00:04:52.018Z,18.90
2018-04-16T00:07:19.586Z,17.20
2018-04-16T00:09:47.167Z,17.47
2018-04-16T00:12:15.498Z,17.53
2018-04-16T00:14:43.110Z,17.77
2018-04-16T00:17:10.685Z,19.07
2018-04-16T00:19:38.251Z,17.53
2018-04-16T00:22:05.835Z,17.77
2018-04-16T00:24:33.423Z,17.63
2018-04-16T00:27:01.794Z,17.90
2018-04-16T00:29:29.366Z,19.93
2018-04-16T00:32:02.673Z,18.37
2018-04-16T00:34:35.995Z,19.40
2018-04-16T00:40:13.041Z,18.53
2018-04-16T00:42:46.922Z,19.20
2018-04-16T00:45:20.172Z,19.93
2018-04-16T00:47:53.334Z,19.80
2018-04-16T00:50:27.358Z,19.13
2018-04-16T00:53:00.658Z,20.43
2018-04-16T00:55:33.790Z,19.70
2018-04-16T00:58:06.935Z,18.87
2018-04-16T01:00:40.131Z,18.80
2018-04-16T01:03:13.406Z,18.97
2018-04-16T01:05:47.287Z,18.97
2018-04-16T01:08:21.131Z,20.10
2018-04-16T01:10:54.278Z,18.00
2018-04-16T01:13:27.514Z,17.97
2018-04-16T01:16:00.710Z,18.87
2018-04-16T01:18:33.830Z,20.50
2018-04-16T01:21:07.070Z,19.33
2018-04-16T01:23:40.411Z,18.63
2018-04-16T01:26:13.506Z,20.07
2018-04-16T01:28:46.647Z,17.97
2018-04-16T01:31:19.769Z,19.63
2018-04-16T01:33:52.946Z,19.03
2018-04-16T01:36:26.102Z,19.53
2018-04-16T01:38:59.270Z,19.63
2018-04-16T01:41:32.390Z,20.40
2018-04-16T01:44:05.534Z,19.30
2018-04-16T01:46:38.834Z,20.60
2018-04-16T01:49:11.994Z,20.27
2018-04-16T01:51:45.169Z,20.37
2018-04-16T01:54:18.301Z,19.90
2018-04-16T01:56:51.556Z,22.07
2018-04-16T01:59:24.846Z,21.13
2018-04-16T02:01:57.940Z,21.97
2018-04-16T02:04:31.129Z,22.33
2018-04-16T02:07:04.228Z,21.37
2018-04-16T02:09:37.420Z,22.10
2018-04-16T02:12:10.640Z,21.97
2018-04-16T02:14:43.881Z,23.07
2018-04-16T02:17:17.048Z,21.80
2018-04-16T02:19:50.192Z,22.00
2018-04-16T02:22:23.432Z,22.73
2018-04-16T02:24:56.712Z,24.40
2018-04-16T02:27:29.824Z,24.33
2018-04-16T02:30:02.892Z,24.77
2018-04-16T02:32:36.036Z,21.70
2018-04-16T02:35:09.133Z,23.13
2018-04-16T02:37:42.253Z,21.17
2018-04-16T02:40:15.535Z,21.70
2018-04-16T02:42:48.657Z,20.27
2018-04-16T02:45:21.996Z,20.00
2018-04-16T02:47:55.268Z,21.70
2018-04-16T02:50:28.411Z,20.20
2018-04-16T02:53:01.665Z,19.60
2018-04-16T02:55:34.856Z,19.77
2018-04-16T02:58:08.152Z,19.67
2018-04-16T03:00:42.312Z,19.50
2018-04-16T03:03:15.506Z,19.80
2018-04-16T03:05:48.649Z,19.80
2018-04-16T03:08:21.881Z,18.70
2018-04-16T03:10:55.000Z,19.33
2018-04-16T03:13:28.273Z,22.67
2018-04-16T03:16:01.515Z,18.73
2018-04-16T03:18:35.388Z,20.43
2018-04-16T03:21:08.480Z,21.20
2018-04-16T03:23:41.616Z,21.83
2018-04-16T03:29:15.941Z,19.90
2018-04-16T03:31:49.807Z,19.97
2018-04-16T03:41:12.032Z,19.57
2018-04-16T03:43:45.150Z,23.50
2018-04-16T03:46:28.416Z,23.57
2018-04-16T03:49:01.701Z,26.07
2018-04-16T03:51:34.072Z,26.10
2018-04-16T03:54:01.640Z,28.00
2018-04-16T03:56:29.193Z,26.17
2018-04-16T03:58:56.780Z,24.97
2018-04-16T04:01:25.096Z,26.20
2018-04-16T04:03:52.648Z,26.57
2018-04-16T04:06:20.202Z,27.03
2018-04-16T04:08:47.757Z,29.47
2018-04-16T04:11:15.344Z,28.33
2018-04-16T04:13:42.907Z,27.10
2018-04-16T04:16:10.464Z,28.43
2018-04-16T04:18:38.022Z,29.03
2018-04-16T04:21:05.577Z,28.10
2018-04-16T04:23:44.986Z,27.70
2018-04-16T04:26:24.152Z,27.77
2018-04-16T04:29:04.297Z,27.33
2018-04-16T04:31:31.860Z,27.00
2018-04-16T04:33:59.419Z,27.63
2018-04-16T04:36:27.024Z,28.17
2018-04-16T04:38:54.581Z,29.53
2018-04-16T04:41:22.136Z,26.50
2018-04-16T04:43:49.696Z,25.77
2018-04-16T04:46:17.252Z,25.73
2018-04-16T04:48:44.836Z,25.20
2018-04-16T04:51:12.412Z,26.30
2018-04-16T04:53:39.968Z,25.10
2018-04-16T04:56:07.529Z,25.47
2018-04-16T04:58:35.086Z,26.87
2018-04-16T05:01:02.654Z,27.13
2018-04-16T05:03:30.240Z,26.07
2018-04-16T05:05:58.560Z,28.17
2018-04-16T05:08:26.127Z,27.80
2018-04-16T05:10:53.684Z,27.13
2018-04-16T05:13:21.240Z,26.13
2018-04-16T05:15:48.812Z,25.67
2018-04-16T05:18:16.370Z,25.07
2018-04-16T05:20:43.932Z,25.90
2018-04-16T05:23:11.488Z,24.80
2018-04-16T05:25:39.059Z,24.93
2018-04-16T05:28:06.651Z,24.53
2018-04-16T05:30:34.979Z,26.87
2018-04-16T05:33:02.545Z,26.00
2018-04-16T05:35:30.112Z,26.60
2018-04-16T05:37:57.670Z,27.47
2018-04-16T05:40:25.257Z,26.60
2018-04-16T05:42:52.816Z,25.00
2018-04-16T05:45:20.373Z,26.57
2018-04-16T05:47:48.702Z,25.43
2018-04-16T05:50:16.256Z,25.17
2018-04-16T05:52:43.852Z,23.13
2018-04-16T05:55:11.412Z,23.50
2018-04-16T05:57:39.729Z,22.90
2018-04-16T06:00:07.283Z,22.43
2018-04-16T06:02:34.837Z,21.87
2018-04-16T06:05:02.420Z,20.43
2018-04-16T06:07:29.971Z,20.63
2018-04-16T06:09:57.520Z,19.53
2018-04-16T06:12:25.077Z,19.83
2018-04-16T06:14:52.660Z,20.13
2018-04-16T06:17:20.240Z,20.20
2018-04-16T06:19:47.788Z,20.63
2018-04-16T06:22:15.349Z,20.80
2018-04-16T06:24:42.911Z,20.50
2018-04-16T06:27:10.473Z,19.97
2018-04-16T06:29:38.052Z,20.50
2018-04-16T06:32:05.616Z,20.03
2018-04-16T06:34:33.176Z,20.77
2018-04-16T06:37:00.773Z,19.40
2018-04-16T06:39:28.333Z,17.70
2018-04-16T06:41:55.916Z,19.70
2018-04-16T06:44:23.467Z,19.53
2018-04-16T06:46:51.016Z,17.47
2018-04-16T06:49:18.570Z,17.33
2018-04-16T06:51:46.120Z,18.90
2018-04-16T06:54:13.696Z,18.70
2018-04-16T06:56:41.249Z,19.07
2018-04-16T06:59:08.814Z,18.87
2018-04-16T07:01:36.391Z,18.07
2018-04-16T07:04:04.746Z,17.77
2018-04-16T07:06:32.349Z,17.57
2018-04-16T07:08:59.924Z,18.27
2018-04-16T07:11:27.492Z,18.47
2018-04-16T07:13:55.044Z,18.07
2018-04-16T07:16:22.605Z,17.27
2018-04-16T07:18:50.192Z,16.83
2018-04-16T07:21:17.744Z,15.50
2018-04-16T07:23:45.296Z,16.53
2018-04-16T07:26:12.851Z,15.17
2018-04-16T07:28:40.410Z,15.37
2018-04-16T07:31:07.991Z,16.17
2018-04-16T07:33:35.550Z,15.83
2018-04-16T07:36:03.126Z,16.67
2018-04-16T07:38:30.684Z,15.40
2018-04-16T07:40:58.999Z,15.33
2018-04-16T07:43:26.584Z,15.33
2018-04-16T07:45:54.152Z,14.83
2018-04-16T07:48:21.712Z,15.90
2018-04-16T07:50:49.270Z,15.27
2018-04-16T07:53:16.826Z,14.97
2018-04-16T07:55:44.423Z,16.07
2018-04-16T07:58:11.985Z,16.23
2018-04-16T08:00:39.536Z,15.53
2018-04-16T08:03:07.096Z,17.20
2018-04-16T08:05:34.645Z,15.57
2018-04-16T08:08:02.988Z,14.83
2018-04-16T08:10:30.552Z,15.80
2018-04-16T08:12:58.109Z,13.90
2018-04-16T08:15:25.660Z,14.83
2018-04-16T08:17:53.224Z,15.63
2018-04-16T08:20:20.807Z,15.20
2018-04-16T08:22:49.136Z,15.50
2018-04-16T08:25:16.700Z,12.67
2018-04-16T08:27:44.264Z,13.97
2018-04-16T08:30:11.826Z,13.00
2018-04-16T08:32:39.424Z,13.43
2018-04-16T08:35:06.984Z,13.97
2018-04-16T08:37:34.536Z,14.00
2018-04-16T08:40:02.867Z,12.17
2018-04-16T08:42:30.424Z,13.57
2018-04-16T08:44:58.000Z,13.40
2018-04-16T08:47:25.557Z,13.50
2018-04-16T08:49:53.112Z,13.10
2018-04-16T08:52:20.672Z,14.30
2018-04-16T08:54:48.221Z,13.57
2018-04-16T08:57:15.797Z,12.40
2018-04-16T08:59:43.376Z,12.47
2018-04-16T09:02:10.946Z,13.50
2018-04-16T09:04:38.512Z,12.97
2018-04-16T09:07:06.072Z,13.07
2018-04-16T09:09:33.649Z,13.13
2018-04-16T09:12:01.211Z,12.60
2018-04-16T09:14:28.760Z,13.67
2018-04-16T09:16:56.316Z,12.67
2018-04-16T09:19:23.870Z,13.20
2018-04-16T09:21:51.448Z,12.87
2018-04-16T09:24:19.009Z,13.40
2018-04-16T09:26:46.561Z,13.80
2018-04-16T09:29:14.117Z,13.17
2018-04-16T09:31:41.672Z,12.40
2018-04-16T09:34:09.257Z,12.47
2018-04-16T09:36:36.825Z,12.10
2018-04-16T09:39:07.264Z,12.63
2018-04-16T09:41:34.820Z,12.77
2018-04-16T09:44:03.153Z,12.57
2018-04-16T09:46:30.728Z,12.03
2018-04-16T09:48:58.280Z,11.77
2018-04-16T09:51:25.837Z,12.67
2018-04-16T09:53:53.421Z,12.97
2018-04-16T09:56:20.980Z,13.20
2018-04-16T09:58:48.556Z,13.17
2018-04-16T10:01:21.875Z,11.93
2018-04-16T10:03:49.460Z,13.07
2018-04-16T10:06:17.022Z,12.30
2018-04-16T10:08:44.584Z,11.23
2018-04-16T10:11:12.141Z,12.03
2018-04-16T10:13:39.696Z,12.00
2018-04-16T10:16:07.280Z,12.37
2018-04-16T10:18:34.848Z,12.00
2018-04-16T10:21:02.421Z,12.60
2018-04-16T10:23:30.020Z,11.93
2018-04-16T10:25:57.580Z,11.77
2018-04-16T10:28:25.165Z,12.30
2018-04-16T10:30:52.719Z,12.87
2018-04-16T10:33:20.272Z,11.30
2018-04-16T10:35:47.849Z,13.33
2018-04-16T10:38:15.418Z,12.63
2018-04-16T10:40:43.000Z,12.07
2018-04-16T10:43:10.553Z,11.47
2018-04-16T10:45:38.128Z,11.87
2018-04-16T10:48:05.708Z,11.77
2018-04-16T10:50:33.273Z,13.03
2018-04-16T10:53:00.836Z,13.33
2018-04-16T10:55:28.420Z,13.40
2018-04-16T10:57:55.976Z,12.80
2018-04-16T11:00:23.535Z,13.77
2018-04-16T11:02:51.856Z,12.63
2018-04-16T11:05:19.412Z,12.80
2018-04-16T11:07:46.964Z,12.30
2018-04-16T11:10:14.530Z,13.07
2018-04-16T11:12:42.084Z,13.50
2018-04-16T11:15:09.664Z,13.20
2018-04-16T11:17:37.220Z,14.43
2018-04-16T11:20:04.784Z,14.37
2018-04-16T11:22:32.384Z,13.73
2018-04-16T11:24:59.943Z,13.57
2018-04-16T11:27:28.276Z,14.30
2018-04-16T11:29:55.840Z,14.03
2018-04-16T11:32:23.431Z,13.47
2018-04-16T11:34:51.012Z,14.17
2018-04-16T11:37:18.574Z,13.17
2018-04-16T11:39:46.133Z,12.87
2018-04-16T11:42:13.688Z,12.20
2018-04-16T11:44:41.250Z,12.70
2018-04-16T11:47:08.841Z,12.77
2018-04-16T11:49:36.398Z,11.87
2018-04-16T11:52:03.957Z,12.63
2018-04-16T11:54:31.516Z,12.43
2018-04-16T11:56:59.076Z,11.87
2018-04-16T11:59:26.661Z,13.03
2018-04-16T12:01:54.266Z,11.97
2018-04-16T12:04:21.905Z,12.77
2018-04-16T12:06:49.417Z,12.73
2018-04-16T12:09:16.976Z,12.30
2018-04-16T12:11:44.557Z,12.57
2018-04-16T12:14:12.118Z,12.07
2018-04-16T12:16:40.486Z,12.43
2018-04-16T12:19:08.024Z,13.13
2018-04-16T12:21:35.580Z,11.50
2018-04-16T12:24:03.160Z,10.10
2018-04-16T12:26:31.487Z,10.30
2018-04-16T12:28:59.062Z,10.93
2018-04-16T12:31:26.624Z,11.87
2018-04-16T12:33:54.226Z,10.77
2018-04-16T12:36:22.568Z,11.93
2018-04-16T12:38:50.124Z,11.70
2018-04-16T12:41:17.696Z,11.43
2018-04-16T12:43:45.251Z,12.83
2018-04-16T12:46:12.817Z,12.90
2018-04-16T12:48:41.172Z,12.60
2018-04-16T12:51:08.736Z,12.50
2018-04-16T12:53:36.294Z,11.63
2018-04-16T12:56:03.848Z,13.00
2018-04-16T12:58:31.409Z,13.03
2018-04-16T13:00:59.232Z,12.87
2018-04-16T13:03:26.798Z,12.33
2018-04-16T13:05:54.360Z,11.80
2018-04-16T13:08:21.921Z,12.20
2018-04-16T13:10:49.909Z,12.30
2018-04-16T13:13:17.509Z,11.10
2018-04-16T13:15:45.064Z,11.90
2018-04-16T13:18:13.391Z,11.63
2018-04-16T13:20:40.964Z,11.23
2018-04-16T13:23:08.532Z,11.27
2018-04-16T13:25:36.112Z,11.23
2018-04-16T13:28:04.436Z,12.07
2018-04-16T13:30:31.991Z,11.43
2018-04-16T13:32:59.555Z,11.03
2018-04-16T13:35:27.112Z,12.27
2018-04-16T13:37:54.695Z,11.40
2018-04-16T13:40:22.258Z,11.17
2018-04-16T13:42:49.817Z,11.90
2018-04-16T13:45:17.376Z,11.50
2018-04-16T13:47:44.936Z,11.03
2018-04-16T13:50:12.547Z,11.17
2018-04-16T13:52:40.109Z,11.07
2018-04-16T13:55:07.665Z,10.60
2018-04-16T13:57:35.225Z,10.67
2018-04-16T14:00:02.789Z,10.60
2018-04-16T14:02:30.372Z,11.30
2018-04-16T14:04:57.928Z,10.33
2018-04-16T14:07:25.480Z,9.90
2018-04-16T14:09:53.048Z,17.80
2018-04-16T14:12:20.610Z,14.27
2018-04-16T14:14:48.192Z,11.23
2018-04-16T14:17:15.747Z,10.47
2018-04-16T14:19:44.068Z,11.77
2018-04-16T14:22:11.622Z,11.80
2018-04-16T14:24:39.173Z,10.57
2018-04-16T14:27:06.751Z,11.33
2018-04-16T14:29:34.376Z,10.37
2018-04-16T14:32:01.903Z,11.17
2018-04-16T14:34:29.461Z,10.33
2018-04-16T14:36:57.787Z,10.83
2018-04-16T14:39:25.372Z,10.10
2018-04-16T14:41:52.944Z,10.97
2018-04-16T14:44:20.516Z,10.20
2018-04-16T14:46:48.838Z,9.97
2018-04-16T14:49:16.400Z,10.20
2018-04-16T14:51:43.981Z,8.57
2018-04-16T14:54:11.541Z,8.17
2018-04-16T14:56:39.147Z,8.20
2018-04-16T14:59:06.669Z,7.83
2018-04-16T15:01:34.224Z,8.53
2018-04-16T15:04:01.809Z,8.07
2018-04-16T15:06:29.364Z,7.67
2018-04-16T15:08:56.916Z,8.30
2018-04-16T15:11:25.240Z,8.57
2018-04-16T15:13:52.792Z,6.47
2018-04-16T15:16:20.364Z,7.70
2018-04-16T15:18:47.928Z,8.63
2018-04-16T15:21:15.479Z,8.07
2018-04-16T15:23:43.032Z,8.20
2018-04-16T15:26:10.583Z,7.80
2018-04-16T15:28:38.175Z,8.57
2018-04-16T15:31:05.771Z,8.80
2018-04-16T15:33:33.328Z,9.23
2018-04-16T15:36:00.924Z,9.43
2018-04-16T15:38:29.244Z,9.27
2018-04-16T15:40:56.820Z,9.00
2018-04-16T15:43:24.378Z,7.90
2018-04-16T15:45:51.948Z,8.53
2018-04-16T15:48:19.497Z,8.37
2018-04-16T15:50:47.052Z,8.60
2018-04-16T15:53:14.633Z,7.37
2018-04-16T15:55:42.202Z,7.90
2018-04-16T15:58:09.755Z,7.70
2018-04-16T16:00:37.329Z,7.80
2018-04-16T16:03:04.885Z,7.70
2018-04-16T16:05:32.473Z,8.77
2018-04-16T16:08:00.032Z,8.70
2018-04-16T16:10:27.591Z,8.27
2018-04-16T16:12:55.915Z,9.47
2018-04-16T16:15:23.472Z,8.57
2018-04-16T16:17:51.050Z,9.13
2018-04-16T16:20:18.634Z,7.77
2018-04-16T16:22:46.198Z,7.93
2018-04-16T16:25:13.791Z,8.40
2018-04-16T16:27:41.370Z,10.07
2018-04-16T16:30:08.953Z,8.87
2018-04-16T16:32:36.510Z,9.63
2018-04-16T16:35:04.061Z,9.77
2018-04-16T16:37:31.621Z,10.67
2018-04-16T16:39:59.189Z,10.77
2018-04-16T16:42:26.780Z,10.33
2018-04-16T16:44:54.336Z,10.97
2018-04-16T16:47:21.896Z,10.47
2018-04-16T16:49:49.563Z,10.33
2018-04-16T16:52:17.118Z,9.80
2018-04-16T16:54:45.464Z,10.57
2018-04-16T16:57:13.015Z,9.93
2018-04-16T16:59:40.572Z,9.57
2018-04-16T17:02:08.134Z,10.00
2018-04-16T17:04:35.692Z,10.43
2018-04-16T17:07:03.276Z,9.93
2018-04-16T17:09:30.840Z,9.40
2018-04-16T17:11:59.157Z,9.37
2018-04-16T17:14:26.705Z,8.83
2018-04-16T17:16:54.268Z,9.20
2018-04-16T17:19:21.855Z,9.53
2018-04-16T17:21:49.419Z,8.83
2018-04-16T17:24:17.731Z,9.13
2018-04-16T17:26:45.289Z,8.90
2018-04-16T17:29:13.310Z,9.23
2018-04-16T17:31:40.982Z,8.00
2018-04-16T17:34:09.323Z,8.20
2018-04-16T17:36:36.876Z,8.30
2018-04-16T17:39:07.168Z,9.10
2018-04-16T17:41:34.728Z,7.83
2018-04-16T17:44:02.304Z,7.53
2018-04-16T17:46:29.852Z,6.83
2018-04-16T17:48:57.408Z,7.40
2018-04-16T17:51:24.984Z,6.40
2018-04-16T17:53:52.576Z,6.77
2018-04-16T17:56:20.132Z,6.37
2018-04-16T17:58:47.680Z,6.50
2018-04-16T18:01:15.232Z,6.80
2018-04-16T18:03:42.785Z,7.13
2018-04-16T18:06:10.332Z,7.10
2018-04-16T18:08:37.890Z,6.97
2018-04-16T18:11:05.444Z,6.40
2018-04-16T18:13:32.992Z,6.77
2018-04-16T18:16:00.540Z,6.77
2018-04-16T18:18:28.117Z,6.50
2018-04-16T18:20:55.677Z,6.10
2018-04-16T18:23:23.232Z,6.67
2018-04-16T18:25:50.813Z,7.23
2018-04-16T18:28:18.362Z,7.00
2018-04-16T18:30:46.979Z,5.70
2018-04-16T18:33:15.731Z,6.50
2018-04-16T18:35:43.369Z,6.40
2018-04-16T18:38:10.920Z,6.10
2018-04-16T18:40:38.491Z,5.80
2018-04-16T18:43:06.060Z,6.10
2018-04-16T18:45:33.621Z,6.43
2018-04-16T18:48:01.242Z,5.93
2018-04-16T18:50:28.764Z,6.90
2018-04-16T18:52:56.316Z,6.37
2018-04-16T18:55:23.898Z,6.30
2018-04-16T18:57:51.448Z,7.12
2018-04-16T19:00:19.001Z,6.63
2018-04-16T19:02:46.553Z,6.73
2018-04-16T19:05:14.109Z,6.20
2018-04-16T19:07:41.743Z,6.70
2018-04-16T19:10:09.305Z,5.80
2018-04-16T19:12:36.855Z,6.23
2018-04-16T19:15:04.406Z,6.20
2018-04-16T19:17:31.957Z,6.37
2018-04-16T19:19:59.530Z,5.97
2018-04-16T19:22:27.076Z,6.13
2018-04-16T19:24:54.633Z,6.37
2018-04-16T19:27:27.934Z,5.70
2018-04-16T19:29:55.519Z,5.87
2018-04-16T19:32:23.080Z,5.93
2018-04-16T19:34:56.337Z,5.80
2018-04-16T19:37:23.888Z,5.33
2018-04-16T19:39:51.436Z,5.80
2018-04-16T19:42:24.656Z,6.60
2018-04-16T19:44:52.216Z,5.60
2018-04-16T19:47:19.799Z,5.83
2018-04-16T19:49:53.117Z,5.73
2018-04-16T19:52:20.712Z,6.20
2018-04-16T19:54:48.274Z,5.90
2018-04-16T19:57:22.269Z,5.90
2018-04-16T19:59:49.821Z,5.70
2018-04-16T20:02:22.876Z,6.13
2018-04-16T20:04:50.426Z,5.93
2018-04-16T20:07:18.676Z,5.10
2018-04-16T20:09:46.261Z,5.77
2018-04-16T20:12:13.816Z,5.93
2018-04-16T20:14:41.372Z,5.93
2018-04-16T20:17:08.932Z,5.93
2018-04-16T20:19:36.483Z,6.20
2018-04-16T20:22:04.064Z,5.67
2018-04-16T20:24:32.389Z,5.83
2018-04-16T20:26:59.942Z,5.80
2018-04-16T20:29:27.503Z,5.60
2018-04-16T20:31:55.059Z,5.50
2018-04-16T20:34:22.632Z,5.60
2018-04-16T20:36:50.185Z,6.33
2018-04-16T20:39:17.752Z,5.53
2018-04-16T20:41:45.320Z,5.83
2018-04-16T20:44:12.868Z,6.47
2018-04-16T20:46:40.444Z,5.77
2018-04-16T20:49:08.000Z,6.77
2018-04-16T20:51:35.548Z,5.10
2018-04-16T20:54:03.105Z,6.20
2018-04-16T20:56:30.656Z,7.00
2018-04-16T20:58:58.227Z,6.97
2018-04-16T21:01:25.781Z,6.60
2018-04-16T21:03:53.330Z,5.57
2018-04-16T21:06:20.856Z,6.17
2018-04-16T21:08:48.398Z,6.60
2018-04-16T21:11:16.708Z,6.37
2018-04-16T21:13:44.228Z,5.30
2018-04-16T21:16:12.509Z,5.40
2018-04-16T21:18:40.049Z,6.73
2018-04-16T21:21:08.333Z,6.13
2018-04-16T21:23:35.876Z,6.20
2018-04-16T21:26:04.180Z,5.67
2018-04-16T21:28:31.700Z,6.27
2018-04-16T21:30:59.224Z,5.90
2018-04-16T21:33:26.748Z,6.33
2018-04-16T21:35:54.313Z,5.90
2018-04-16T21:38:21.836Z,6.03
2018-04-16T21:40:49.356Z,5.53
2018-04-16T21:43:16.888Z,6.10
2018-04-16T21:45:44.418Z,6.17
2018-04-16T21:48:11.979Z,6.03
2018-04-16T21:50:40.265Z,5.97
2018-04-16T21:53:07.802Z,5.77
2018-04-16T21:55:36.108Z,6.50
2018-04-16T21:58:03.632Z,6.10
2018-04-16T22:00:31.954Z,5.97
2018-04-16T22:02:59.476Z,6.03
2018-04-16T22:05:27.761Z,6.23
2018-04-16T22:10:26.258Z,6.30
2018-04-16T22:12:53.796Z,5.90
2018-04-16T22:15:21.317Z,5.90
2018-04-16T22:17:48.851Z,6.10
2018-04-16T22:20:16.391Z,6.10
2018-04-16T22:22:43.922Z,6.20
2018-04-16T22:25:11.472Z,6.23
2018-04-16T22:27:39.011Z,6.43
2018-04-16T22:30:06.547Z,6.07
2018-04-16T22:32:34.070Z,6.20
2018-04-16T22:35:01.623Z,6.57
2018-04-16T22:37:29.953Z,6.30
2018-04-16T22:39:57.501Z,6.20
2018-04-16T22:42:25.060Z,6.17
2018-04-16T22:44:52.609Z,6.20
2018-04-16T22:47:20.161Z,5.87
2018-04-16T22:49:47.740Z,5.67
2018-04-16T22:52:15.301Z,5.87
2018-04-16T22:54:42.863Z,5.97
2018-04-16T22:57:10.420Z,5.87
2018-04-16T22:59:37.981Z,6.40
2018-04-16T23:02:05.562Z,6.50
2018-04-16T23:04:33.125Z,6.27
2018-04-16T23:07:00.672Z,6.73
2018-04-16T23:09:28.224Z,6.43
2018-04-16T23:11:55.780Z,5.77
2018-04-16T23:14:23.360Z,6.23
2018-04-16T23:16:51.676Z,5.90
2018-04-16T23:19:19.233Z,5.77
2018-04-16T23:21:46.798Z,6.47
2018-04-16T23:24:14.354Z,7.03
2018-04-16T23:26:41.920Z,6.57
2018-04-16T23:29:09.486Z,6.30
2018-04-16T23:31:37.036Z,6.70
2018-04-16T23:34:04.592Z,6.00
2018-04-16T23:36:32.146Z,6.17
2018-04-16T23:38:59.725Z,6.20
2018-04-16T23:41:27.288Z,6.70
2018-04-16T23:43:54.860Z,6.13
2018-04-16T23:46:22.417Z,6.00
2018-04-16T23:48:49.975Z,5.50
2018-04-16T23:51:17.576Z,6.53
2018-04-16T23:53:45.136Z,6.00
2018-04-16T23:56:12.702Z,5.50
2018-04-16T23:58:40.258Z,5.90
